GMMN/CMN METAR and TAF weather

Enter ICAO airport designator
Station Type Date Time Source
GMMN METAR 2020/07/02 18:30 UTC NOAA

GMMN 021830Z 02012KT 9999 FEW016 SCT200 24/20 Q1019 NOSIG


Station Type Date Time Source
GMMN Decoded METAR 2020/07/02 18:30 UTC NOAA

Nouasseur, Morocco (GMMN) 33-22N 007-35W 206M
Jul 02, 2020 - 02:30 PM EDT / 2020.07.02 1830 UTC
Wind: from the NNE (020 degrees) at 14 MPH (12 KT):0
Visibility: greater than 7 mile(s):0
Sky conditions: partly cloudy
Temperature: 75 F (24 C)
Dew Point: 68 F (20 C)
Relative Humidity: 78%
Pressure (altimeter): 30.09 in. Hg (1019 hPa)
ob: GMMN 021830Z 02012KT 9999 FEW016 SCT200 24/20 Q1019 NOSIG
cycle: 18

Station Type Date Time Source
GMMN TAF 2020/07/02 18:18 UTC NOAA

TAF GMMN 021700Z 0218/0324 36012KT CAVOK
BECMG 0219/0222 36006KT 8000 SCT016
TEMPO 0300/0309 3000 BR BKN006
FM031200 36012KT CAVOK
BECMG 0319/0321 36006KT 8000 SCT016

Example: see airport list